createdAt,value
2018-10-09T00:00:20.690Z,31.73
2018-10-09T00:02:49.591Z,31.60
2018-10-09T00:05:18.570Z,30.73
2018-10-09T00:07:47.467Z,31.57
2018-10-09T00:10:16.380Z,31.47
2018-10-09T00:12:45.348Z,30.33
2018-10-09T00:15:14.236Z,30.27
2018-10-09T00:17:43.132Z,30.07
2018-10-09T00:20:16.214Z,30.77
2018-10-09T00:22:45.226Z,33.43
2018-10-09T00:25:14.128Z,32.07
2018-10-09T00:27:43.091Z,30.80
2018-10-09T00:30:12.031Z,29.90
2018-10-09T00:32:40.955Z,30.00
2018-10-09T00:35:09.892Z,29.70
2018-10-09T00:37:38.863Z,28.73
2018-10-09T00:40:07.832Z,29.20
2018-10-09T00:42:36.800Z,29.23
2018-10-09T00:45:05.967Z,29.10
2018-10-09T00:47:34.983Z,29.57
2018-10-09T00:50:03.983Z,29.50
2018-10-09T00:52:33.621Z,26.90
2018-10-09T00:55:02.584Z,28.07
2018-10-09T00:57:31.711Z,26.97
2018-10-09T01:00:00.675Z,26.97
2018-10-09T01:02:29.631Z,27.20
2018-10-09T01:04:58.634Z,28.73
2018-10-09T01:07:27.603Z,26.80
2018-10-09T01:09:56.505Z,26.67
2018-10-09T01:12:25.419Z,27.63
2018-10-09T01:14:54.386Z,26.73
2018-10-09T01:17:23.276Z,26.97
2018-10-09T01:19:52.187Z,27.00
2018-10-09T01:22:21.251Z,28.30
2018-10-09T01:24:50.243Z,27.43
2018-10-09T01:27:19.316Z,27.20
2018-10-09T01:29:48.208Z,27.37
2018-10-09T01:32:17.400Z,27.30
2018-10-09T01:34:46.329Z,26.50
2018-10-09T01:37:15.224Z,28.03
2018-10-09T01:39:44.180Z,26.13
2018-10-09T01:42:13.064Z,26.80
2018-10-09T01:44:41.990Z,27.80
2018-10-09T01:47:10.927Z,26.30
2018-10-09T01:49:40.387Z,26.93
2018-10-09T01:52:09.375Z,28.07
2018-10-09T01:54:38.368Z,26.27
2018-10-09T01:57:07.364Z,26.47
2018-10-09T01:59:36.277Z,24.20
2018-10-09T02:02:05.192Z,25.67
2018-10-09T02:04:34.146Z,25.23
2018-10-09T02:07:03.071Z,26.93
2018-10-09T02:09:32.019Z,25.73
2018-10-09T02:12:00.908Z,26.97
2018-10-09T02:14:29.795Z,25.43
2018-10-09T02:16:58.720Z,26.53
2018-10-09T02:19:27.684Z,25.40
2018-10-09T02:21:56.583Z,24.13
2018-10-09T02:24:25.515Z,23.93
2018-10-09T02:26:54.460Z,23.87
2018-10-09T02:29:23.363Z,24.33
2018-10-09T02:31:52.268Z,23.87
2018-10-09T02:34:21.231Z,23.57
2018-10-09T02:36:50.147Z,22.97
2018-10-09T02:39:19.077Z,23.87
2018-10-09T02:41:48.019Z,22.73
2018-10-09T02:44:17.004Z,23.13
2018-10-09T02:46:45.911Z,24.00
2018-10-09T02:49:14.860Z,23.77
2018-10-09T02:51:43.777Z,23.70
2018-10-09T02:54:12.676Z,23.47
2018-10-09T02:56:41.664Z,23.87
2018-10-09T02:59:10.581Z,24.43
2018-10-09T03:01:39.537Z,23.73
2018-10-09T03:04:08.463Z,23.60
2018-10-09T03:06:37.365Z,24.20
2018-10-09T03:09:08.202Z,23.37
2018-10-09T03:11:37.339Z,23.57
2018-10-09T03:14:08.214Z,23.83
2018-10-09T03:16:37.099Z,24.20
2018-10-09T03:19:06.032Z,24.73
2018-10-09T03:21:34.947Z,23.70
2018-10-09T03:24:03.879Z,24.17
2018-10-09T03:26:32.779Z,23.93
2018-10-09T03:29:01.699Z,22.70
2018-10-09T03:31:30.648Z,23.73
2018-10-09T03:33:59.651Z,24.27
2018-10-09T03:36:28.692Z,25.57
2018-10-09T03:38:57.660Z,25.83
2018-10-09T03:41:26.618Z,24.73
2018-10-09T03:43:55.705Z,25.33
2018-10-09T03:46:24.595Z,24.53
2018-10-09T03:48:53.556Z,25.30
2018-10-09T03:51:22.445Z,26.17
2018-10-09T03:53:51.336Z,27.07
2018-10-09T03:56:21.248Z,26.93
2018-10-09T03:58:50.196Z,26.07
2018-10-09T04:01:19.184Z,26.50
2018-10-09T04:03:48.320Z,26.00
2018-10-09T04:06:17.280Z,25.40
2018-10-09T04:08:46.179Z,25.53
2018-10-09T04:11:15.139Z,26.03
2018-10-09T04:13:44.120Z,26.37
2018-10-09T04:16:13.236Z,26.27
2018-10-09T04:18:43.038Z,25.43
2018-10-09T04:21:11.960Z,23.60
2018-10-09T04:23:41.571Z,23.63
2018-10-09T04:26:10.512Z,23.73
2018-10-09T04:28:39.527Z,23.20
2018-10-09T04:31:08.440Z,24.30
2018-10-09T04:33:37.375Z,23.77
2018-10-09T04:36:06.326Z,23.77
2018-10-09T04:38:35.214Z,23.83
2018-10-09T04:41:04.215Z,26.20
2018-10-09T04:43:33.083Z,28.33
2018-10-09T04:46:02.136Z,26.87
2018-10-09T04:48:31.048Z,26.33
2018-10-09T04:51:00.008Z,25.47
2018-10-09T04:53:28.896Z,25.33
2018-10-09T04:55:57.795Z,26.70
2018-10-09T04:58:26.791Z,26.63
2018-10-09T05:00:56.029Z,25.73
2018-10-09T05:03:24.924Z,29.47
2018-10-09T05:05:53.969Z,31.57
2018-10-09T05:08:23.017Z,30.50
2018-10-09T05:10:51.951Z,31.53
2018-10-09T05:13:20.874Z,31.57
2018-10-09T05:15:49.897Z,31.57
2018-10-09T05:18:18.779Z,30.53
2018-10-09T05:20:47.672Z,31.70
2018-10-09T05:23:16.597Z,30.50
2018-10-09T05:25:45.542Z,31.37
2018-10-09T05:28:14.399Z,32.27
2018-10-09T05:30:43.275Z,30.20
2018-10-09T05:33:12.144Z,29.87
2018-10-09T05:35:41.017Z,30.77
2018-10-09T05:38:10.042Z,30.10
2018-10-09T05:40:38.922Z,29.53
2018-10-09T05:43:07.808Z,27.80
2018-10-09T05:45:38.751Z,29.93
2018-10-09T05:48:08.522Z,27.63
2018-10-09T05:50:37.394Z,28.83
2018-10-09T05:53:06.384Z,27.67
2018-10-09T05:55:35.859Z,27.83
2018-10-09T05:58:05.593Z,26.83
2018-10-09T06:00:34.530Z,26.33
2018-10-09T06:03:03.422Z,26.90
2018-10-09T06:05:32.397Z,27.10
2018-10-09T06:08:01.310Z,26.67
2018-10-09T06:10:30.191Z,26.60
2018-10-09T06:12:59.655Z,27.57
2018-10-09T06:15:28.601Z,26.80
2018-10-09T06:17:57.490Z,28.27
2018-10-09T06:20:26.402Z,27.57
2018-10-09T06:22:56.058Z,28.63
2018-10-09T06:25:24.955Z,26.83
2018-10-09T06:27:53.895Z,27.73
2018-10-09T06:30:22.786Z,27.87
2018-10-09T06:32:51.646Z,29.10
2018-10-09T06:35:20.569Z,28.90
2018-10-09T06:37:49.427Z,30.10
2018-10-09T06:40:18.319Z,31.33
2018-10-09T06:42:47.346Z,31.73
2018-10-09T06:45:16.229Z,32.13
2018-10-09T06:47:45.255Z,32.33
2018-10-09T06:50:14.187Z,31.57
2018-10-09T06:52:43.262Z,31.70
2018-10-09T06:55:12.171Z,31.47
2018-10-09T06:57:41.071Z,33.03
2018-10-09T07:00:10.032Z,30.23
2018-10-09T07:02:39.160Z,30.20
2018-10-09T07:05:08.147Z,32.60
2018-10-09T07:07:37.033Z,29.17
2018-10-09T07:10:06.007Z,31.17
2018-10-09T07:12:35.107Z,30.27
2018-10-09T07:15:04.076Z,29.57
2018-10-09T07:17:33.013Z,28.33
2018-10-09T07:20:01.919Z,28.17
2018-10-09T07:22:30.888Z,28.87
2018-10-09T07:25:00.025Z,28.00
2018-10-09T07:27:28.918Z,28.43
2018-10-09T07:29:57.876Z,28.90
2018-10-09T07:32:26.873Z,30.60
2018-10-09T07:34:55.871Z,27.83
2018-10-09T07:37:24.778Z,30.00
2018-10-09T07:39:54.025Z,27.87
2018-10-09T07:42:22.910Z,29.17
2018-10-09T07:44:51.783Z,29.97
2018-10-09T07:47:21.499Z,29.30
2018-10-09T07:49:51.584Z,29.27
2018-10-09T07:52:20.631Z,29.33
2018-10-09T07:54:49.481Z,29.63
2018-10-09T07:57:18.380Z,28.47
2018-10-09T07:59:47.371Z,29.13
2018-10-09T08:02:16.255Z,29.70
2018-10-09T08:04:45.201Z,28.50
2018-10-09T08:07:14.187Z,28.97
2018-10-09T08:09:43.086Z,27.87
2018-10-09T08:12:11.960Z,27.93
2018-10-09T08:14:40.827Z,27.93
2018-10-09T08:17:09.767Z,26.00
2018-10-09T08:19:38.616Z,25.57
2018-10-09T08:22:07.710Z,24.20
2018-10-09T08:24:36.650Z,24.37
2018-10-09T08:27:08.449Z,24.27
2018-10-09T08:29:37.423Z,25.90
2018-10-09T08:32:06.442Z,25.17
2018-10-09T08:34:35.419Z,26.77
2018-10-09T08:37:04.324Z,26.00
2018-10-09T08:39:33.213Z,26.80
2018-10-09T08:42:02.093Z,26.23
2018-10-09T08:44:31.084Z,24.97
2018-10-09T08:46:59.997Z,27.10
2018-10-09T08:49:28.937Z,25.90
2018-10-09T08:51:57.889Z,24.70
2018-10-09T08:54:26.848Z,23.57
2018-10-09T08:56:55.810Z,25.07
2018-10-09T08:59:25.110Z,23.60
2018-10-09T09:01:54.000Z,23.53
2018-10-09T09:04:22.931Z,23.33
2018-10-09T09:06:51.800Z,23.87
2018-10-09T09:09:20.683Z,23.07
2018-10-09T09:11:49.568Z,23.33
2018-10-09T09:14:18.439Z,21.60
2018-10-09T09:16:47.352Z,22.60
2018-10-09T09:19:16.255Z,23.20
2018-10-09T09:21:45.130Z,22.30
2018-10-09T09:24:14.023Z,22.60
2018-10-09T09:26:43.022Z,21.63
2018-10-09T09:29:11.908Z,21.20
2018-10-09T09:31:40.803Z,21.20
2018-10-09T09:34:09.735Z,21.67
2018-10-09T09:36:38.725Z,20.77
2018-10-09T09:39:08.894Z,21.47
2018-10-09T09:41:37.851Z,22.03
2018-10-09T09:44:06.852Z,21.27
2018-10-09T09:46:35.771Z,22.30
2018-10-09T09:49:04.666Z,22.83
2018-10-09T09:51:33.597Z,20.43
2018-10-09T09:54:02.497Z,21.77
2018-10-09T09:56:31.383Z,22.83
2018-10-09T09:59:00.647Z,20.43
2018-10-09T10:01:34.695Z,21.30
2018-10-09T10:04:03.638Z,20.73
2018-10-09T10:06:32.518Z,21.93
2018-10-09T10:09:01.398Z,21.17
2018-10-09T10:11:30.433Z,21.50
2018-10-09T10:13:59.300Z,23.40
2018-10-09T10:16:28.265Z,21.83
2018-10-09T10:18:57.155Z,21.17
2018-10-09T10:21:26.144Z,22.80
2018-10-09T10:23:55.081Z,21.63
2018-10-09T10:26:24.012Z,21.13
2018-10-09T10:28:52.957Z,21.30
2018-10-09T10:31:21.917Z,20.83
2018-10-09T10:33:50.787Z,21.40
2018-10-09T10:36:19.661Z,20.03
2018-10-09T10:38:48.583Z,20.27
2018-10-09T10:41:17.532Z,19.83
2018-10-09T10:43:46.417Z,20.70
2018-10-09T10:46:15.336Z,19.60
2018-10-09T10:49:06.057Z,18.30
2018-10-09T10:51:35.208Z,18.17
2018-10-09T10:54:04.162Z,17.60
2018-10-09T10:56:33.171Z,17.67
2018-10-09T10:59:02.091Z,17.30
2018-10-09T11:01:31.224Z,17.73
2018-10-09T11:04:00.035Z,17.83
2018-10-09T11:06:28.959Z,17.50
2018-10-09T11:08:57.856Z,18.40
2018-10-09T11:11:26.715Z,17.23
2018-10-09T11:13:55.664Z,17.13
2018-10-09T11:16:24.577Z,16.87
2018-10-09T11:18:53.441Z,17.50
2018-10-09T11:21:22.425Z,15.73
2018-10-09T11:23:51.313Z,17.03
2018-10-09T11:26:20.344Z,17.00
2018-10-09T11:28:49.269Z,16.93
2018-10-09T11:31:18.206Z,15.37
2018-10-09T11:33:47.115Z,14.37
2018-10-09T11:36:16.031Z,15.07
2018-10-09T11:38:44.954Z,17.00
2018-10-09T11:41:14.450Z,15.47
2018-10-09T11:43:43.336Z,16.43
2018-10-09T11:46:12.229Z,16.50
2018-10-09T11:48:41.169Z,16.47
2018-10-09T11:51:10.080Z,15.90
2018-10-09T11:53:38.934Z,15.97
2018-10-09T11:56:07.945Z,16.37
2018-10-09T11:58:36.848Z,15.03
2018-10-09T12:01:08.440Z,14.13
2018-10-09T12:03:37.329Z,13.90
2018-10-09T12:06:06.271Z,14.60
2018-10-09T12:08:35.207Z,13.10
2018-10-09T12:11:04.106Z,13.87
2018-10-09T12:13:33.181Z,14.00
2018-10-09T12:16:02.176Z,15.10
2018-10-09T12:18:31.131Z,13.80
2018-10-09T12:21:00.030Z,13.87
2018-10-09T12:23:29.055Z,13.77
2018-10-09T12:25:57.970Z,13.97
2018-10-09T12:28:27.002Z,13.60
2018-10-09T12:30:55.961Z,13.43
2018-10-09T12:33:24.844Z,12.97
2018-10-09T12:35:53.743Z,12.00
2018-10-09T12:38:22.714Z,11.50
2018-10-09T12:40:51.778Z,13.47
2018-10-09T12:43:20.664Z,13.37
2018-10-09T12:45:49.563Z,12.37
2018-10-09T12:48:18.528Z,11.57
2018-10-09T12:50:47.393Z,12.23
2018-10-09T12:53:16.355Z,12.10
2018-10-09T12:55:45.287Z,11.13
2018-10-09T12:58:14.197Z,13.70
2018-10-09T13:00:43.148Z,13.17
2018-10-09T13:03:12.209Z,11.63
2018-10-09T13:05:41.136Z,12.10
2018-10-09T13:08:10.036Z,11.10
2018-10-09T13:10:39.024Z,11.90
2018-10-09T13:13:07.995Z,11.57
2018-10-09T13:15:37.000Z,11.23
2018-10-09T13:18:05.888Z,10.77
2018-10-09T13:20:34.755Z,11.00
2018-10-09T13:23:03.646Z,11.20
2018-10-09T13:25:32.500Z,10.77
2018-10-09T13:28:01.398Z,10.63
2018-10-09T13:30:30.301Z,11.93
2018-10-09T13:32:59.211Z,11.57
2018-10-09T13:35:28.264Z,10.47
2018-10-09T13:37:57.116Z,10.57
2018-10-09T13:40:26.417Z,10.50
2018-10-09T13:42:55.325Z,11.17
2018-10-09T13:45:24.243Z,11.13
2018-10-09T13:47:53.135Z,11.00
2018-10-09T13:50:22.029Z,11.60
2018-10-09T13:52:50.958Z,11.80
2018-10-09T13:55:19.845Z,11.97
2018-10-09T13:57:48.811Z,12.90
2018-10-09T14:00:17.700Z,12.00
2018-10-09T14:02:46.584Z,11.90
2018-10-09T14:05:15.505Z,10.53
2018-10-09T14:07:44.419Z,11.27
2018-10-09T14:10:13.367Z,11.63
2018-10-09T14:12:42.313Z,12.90
2018-10-09T14:15:11.211Z,12.40
2018-10-09T14:17:40.168Z,12.27
2018-10-09T14:20:09.139Z,12.77
2018-10-09T14:22:38.052Z,12.33
2018-10-09T14:25:06.987Z,11.97
2018-10-09T14:27:35.903Z,12.23
2018-10-09T14:30:05.547Z,11.80
2018-10-09T14:32:34.424Z,11.90
2018-10-09T14:35:03.408Z,11.97
2018-10-09T14:37:32.276Z,12.30
2018-10-09T14:40:01.205Z,14.23
2018-10-09T14:42:30.635Z,11.50
2018-10-09T14:44:59.547Z,12.33
2018-10-09T14:47:28.519Z,12.17
2018-10-09T14:49:57.397Z,11.07
2018-10-09T14:52:26.321Z,11.43
2018-10-09T14:54:55.171Z,12.60
2018-10-09T14:57:24.121Z,11.63
2018-10-09T14:59:53.021Z,13.20
2018-10-09T15:02:21.938Z,12.47
2018-10-09T15:04:50.822Z,11.97
2018-10-09T15:07:19.721Z,11.70
2018-10-09T15:09:48.595Z,11.80
2018-10-09T15:12:17.451Z,11.67
2018-10-09T15:14:46.373Z,12.87
2018-10-09T15:17:15.255Z,12.03
2018-10-09T15:19:44.171Z,11.30
2018-10-09T15:22:13.093Z,12.67
2018-10-09T15:24:42.031Z,13.10
2018-10-09T15:27:10.911Z,13.07
2018-10-09T15:29:39.798Z,13.10
2018-10-09T15:32:08.677Z,13.27
2018-10-09T15:34:37.596Z,15.83
2018-10-09T15:37:06.480Z,15.63
2018-10-09T15:39:35.345Z,16.73
2018-10-09T15:42:04.305Z,17.30
2018-10-09T15:44:36.256Z,16.23
2018-10-09T15:47:08.580Z,16.63
2018-10-09T15:49:37.539Z,16.90
2018-10-09T15:52:06.590Z,18.37
2018-10-09T15:54:35.557Z,17.63
2018-10-09T15:57:04.465Z,17.73
2018-10-09T15:59:33.482Z,21.27
2018-10-09T16:02:02.452Z,24.07
2018-10-09T16:04:31.461Z,32.87
2018-10-09T16:07:00.447Z,36.73
2018-10-09T16:09:29.283Z,37.00
2018-10-09T16:11:58.173Z,54.97
2018-10-09T16:14:27.092Z,68.10
2018-10-09T16:16:56.224Z,57.00
2018-10-09T16:19:25.824Z,44.67
2018-10-09T16:21:54.707Z,33.47
2018-10-09T16:24:23.681Z,29.70
2018-10-09T16:26:52.599Z,26.87
2018-10-09T16:29:21.463Z,25.13
2018-10-09T16:31:50.360Z,22.43
2018-10-09T16:34:20.452Z,20.57
2018-10-09T16:36:49.409Z,21.63
2018-10-09T16:39:18.355Z,23.10
2018-10-09T16:41:47.405Z,23.83
2018-10-09T16:44:16.341Z,22.97
2018-10-09T16:46:45.448Z,32.00
2018-10-09T16:49:14.398Z,31.80
2018-10-09T16:51:43.365Z,25.83
2018-10-09T16:54:12.361Z,27.07
2018-10-09T16:56:41.280Z,27.60
2018-10-09T16:59:10.274Z,27.73
2018-10-09T17:01:39.388Z,27.97
2018-10-09T17:04:08.400Z,32.77
2018-10-09T17:06:37.783Z,32.17
2018-10-09T17:09:09.227Z,33.43
2018-10-09T17:11:38.823Z,33.37
2018-10-09T17:14:07.764Z,31.90
2018-10-09T17:16:36.839Z,33.53
2018-10-09T17:19:05.837Z,31.93
2018-10-09T17:21:34.742Z,32.47
2018-10-09T17:24:03.819Z,36.23
2018-10-09T17:26:32.758Z,38.30
2018-10-09T17:29:01.901Z,42.23
2018-10-09T17:31:31.480Z,40.80
2018-10-09T17:34:01.298Z,38.30
2018-10-09T17:36:31.749Z,39.27
2018-10-09T17:39:02.953Z,37.43
2018-10-09T17:41:31.911Z,42.27
2018-10-09T17:44:02.793Z,43.00
2018-10-09T17:46:32.141Z,43.03
2018-10-09T17:49:00.957Z,43.70
2018-10-09T17:51:30.112Z,43.60
2018-10-09T17:53:59.814Z,43.30
2018-10-09T17:56:28.930Z,41.17
2018-10-09T17:58:58.001Z,41.83
2018-10-09T18:01:26.956Z,44.70
2018-10-09T18:03:56.052Z,44.00
2018-10-09T18:06:25.175Z,44.80
2018-10-09T18:08:54.113Z,45.40
2018-10-09T18:11:22.992Z,44.93
2018-10-09T18:13:51.932Z,45.37
2018-10-09T18:16:20.859Z,47.23
2018-10-09T18:18:49.770Z,48.67
2018-10-09T18:21:18.736Z,48.73
2018-10-09T18:23:47.683Z,56.00
2018-10-09T18:26:16.579Z,63.97
2018-10-09T18:28:45.533Z,67.63
2018-10-09T18:31:14.549Z,67.37
2018-10-09T18:33:43.533Z,64.43
2018-10-09T18:36:12.513Z,61.70
2018-10-09T18:38:41.396Z,69.17
2018-10-09T18:41:10.499Z,81.80
2018-10-09T18:43:39.369Z,92.27
2018-10-09T18:46:09.353Z,86.67
2018-10-09T18:48:38.366Z,86.43
2018-10-09T18:51:07.972Z,88.43
2018-10-09T18:53:36.973Z,85.40
2018-10-09T18:56:06.659Z,80.67
2018-10-09T18:58:35.735Z,78.30
2018-10-09T19:01:04.720Z,71.80
2018-10-09T19:03:33.761Z,68.77
2018-10-09T19:06:02.776Z,76.77
2018-10-09T19:08:31.784Z,80.50
2018-10-09T19:11:00.827Z,88.33
2018-10-09T19:13:29.716Z,81.63
2018-10-09T19:15:58.693Z,80.30
2018-10-09T19:18:27.620Z,81.17
2018-10-09T19:20:56.559Z,80.73
2018-10-09T19:23:25.543Z,92.33
2018-10-09T19:25:54.500Z,85.50
2018-10-09T19:28:23.383Z,76.83
2018-10-09T19:30:52.405Z,81.60
2018-10-09T19:33:21.483Z,77.63
2018-10-09T19:35:50.432Z,74.03
2018-10-09T19:38:19.494Z,79.13
2018-10-09T19:40:48.450Z,81.13
2018-10-09T19:43:17.356Z,78.47
2018-10-09T19:45:46.270Z,70.57
2018-10-09T19:48:15.429Z,71.27
2018-10-09T19:50:44.355Z,73.33
2018-10-09T19:53:15.917Z,71.23
2018-10-09T19:55:46.132Z,69.37
2018-10-09T19:58:15.053Z,60.63
2018-10-09T20:00:44.040Z,57.40
2018-10-09T20:03:13.647Z,55.07
2018-10-09T20:05:42.613Z,55.13
2018-10-09T20:08:12.412Z,57.47
2018-10-09T20:10:41.622Z,55.83
2018-10-09T20:13:10.545Z,58.50
2018-10-09T20:15:39.435Z,59.63
2018-10-09T20:18:12.750Z,62.10
2018-10-09T20:20:42.092Z,64.73
2018-10-09T20:23:11.029Z,62.50
2018-10-09T20:25:41.088Z,62.47
2018-10-09T20:28:10.095Z,66.57
2018-10-09T20:30:39.019Z,68.73
2018-10-09T20:33:07.960Z,74.60
2018-10-09T20:35:37.006Z,72.10
2018-10-09T20:38:05.981Z,71.53
2018-10-09T20:40:34.988Z,73.00
2018-10-09T20:43:04.028Z,76.73
2018-10-09T20:45:32.940Z,77.47
2018-10-09T20:48:01.934Z,74.93
2018-10-09T20:50:30.841Z,72.93
2018-10-09T20:52:59.887Z,65.87
2018-10-09T20:55:28.841Z,64.93
2018-10-09T20:57:57.741Z,63.37
2018-10-09T21:00:26.791Z,61.60
2018-10-09T21:02:55.773Z,60.60
2018-10-09T21:05:24.718Z,59.83
2018-10-09T21:07:53.655Z,61.00
2018-10-09T21:10:22.562Z,59.77
2018-10-09T21:12:51.479Z,60.40
2018-10-09T21:15:20.568Z,58.40
2018-10-09T21:17:49.598Z,61.57
2018-10-09T21:20:18.377Z,60.37
2018-10-09T21:22:47.311Z,60.07
2018-10-09T21:25:16.184Z,63.27
2018-10-09T21:27:45.139Z,64.03
2018-10-09T21:30:14.081Z,65.07
2018-10-09T21:32:42.947Z,60.77
2018-10-09T21:35:11.863Z,61.73
2018-10-09T21:37:40.792Z,59.83
2018-10-09T21:40:09.688Z,58.67
2018-10-09T21:42:38.592Z,57.73
2018-10-09T21:45:07.516Z,60.33
2018-10-09T21:47:36.503Z,59.20
2018-10-09T21:50:05.427Z,58.00
2018-10-09T21:52:34.395Z,60.80
2018-10-09T21:55:03.369Z,59.60
2018-10-09T21:57:32.315Z,57.83
2018-10-09T22:00:01.293Z,59.30
2018-10-09T22:02:30.257Z,58.43
2018-10-09T22:04:59.269Z,58.97
2018-10-09T22:07:28.173Z,54.63
2018-10-09T22:09:57.067Z,53.93
2018-10-09T22:12:25.979Z,54.53
2018-10-09T22:14:57.304Z,54.43
2018-10-09T22:17:26.260Z,54.27
2018-10-09T22:19:55.137Z,53.63
2018-10-09T22:22:24.163Z,53.47
2018-10-09T22:24:53.036Z,51.80
2018-10-09T22:27:22.437Z,55.13
2018-10-09T22:29:51.925Z,52.00
2018-10-09T22:32:20.811Z,52.70
2018-10-09T22:34:50.266Z,52.90
2018-10-09T22:37:19.969Z,52.03
2018-10-09T22:39:48.868Z,55.60
2018-10-09T22:42:17.771Z,53.00
2018-10-09T22:44:46.680Z,51.93
2018-10-09T22:47:15.583Z,52.93
2018-10-09T22:49:44.455Z,51.97
2018-10-09T22:52:13.373Z,52.57
2018-10-09T22:54:42.814Z,51.20
2018-10-09T22:57:11.705Z,51.97
2018-10-09T22:59:40.644Z,50.23
2018-10-09T23:02:09.541Z,47.87
2018-10-09T23:04:38.405Z,49.30
2018-10-09T23:07:07.780Z,49.13
2018-10-09T23:09:36.677Z,49.97
2018-10-09T23:12:05.620Z,48.70
2018-10-09T23:14:34.557Z,49.93
2018-10-09T23:17:03.549Z,51.70
2018-10-09T23:19:32.440Z,50.23
2018-10-09T23:22:01.324Z,50.20
2018-10-09T23:24:30.214Z,52.37
2018-10-09T23:26:59.129Z,51.23
2018-10-09T23:29:28.072Z,49.47
2018-10-09T23:31:56.958Z,49.50
2018-10-09T23:34:25.851Z,50.83
2018-10-09T23:36:54.837Z,49.50
2018-10-09T23:39:23.739Z,47.73
2018-10-09T23:41:52.627Z,46.70
2018-10-09T23:44:21.546Z,47.70
2018-10-09T23:46:50.694Z,46.13
2018-10-09T23:49:19.595Z,45.33
2018-10-09T23:51:48.644Z,43.43
2018-10-09T23:54:17.549Z,47.60
2018-10-09T23:56:46.432Z,44.77
2018-10-09T23:59:15.361Z,45.27
